Time;durP1;ratioP1;P1;durP2;ratioP2;P2;SDS_P1;SDS_P2;PMS_P1;PMS_P2;Temp;Humidity;BMP_temperature;BMP_pressure;BME280_temperature;BME280_humidity;BME280_pressure;Samples;Min_cycle;Max_cycle;Signal;HPM_P1;HPM_P2
2022/02/06 00:02:00;;;;;;;6.87;1.60;;;;;;;0.28;100.00;96665.97;5030883;28;20472;-80
2022/02/06 00:04:26;;;;;;;7.80;1.53;;;;;;;0.35;100.00;96667.28;5025174;28;20025;-81
2022/02/06 00:06:52;;;;;;;9.00;1.50;;;;;;;0.38;100.00;96656.78;5021153;28;20462;-81
2022/02/06 00:09:18;;;;;;;5.27;2.53;;;;;;;0.39;100.00;96663.59;5036621;28;20538;-79
2022/02/06 00:11:44;;;;;;;3.93;1.70;;;;;;;0.39;100.00;96666.19;5038618;28;20478;-80
2022/02/06 00:14:11;;;;;;;5.77;1.17;;;;;;;0.44;100.00;96664.19;5028390;28;21355;-79
2022/02/06 00:16:37;;;;;;;7.00;1.23;;;;;;;0.50;100.00;96669.00;5028398;28;20034;-81
2022/02/06 00:19:03;;;;;;;6.60;1.97;;;;;;;0.50;100.00;96656.06;5008010;28;21014;-79
2022/02/06 00:21:31;;;;;;;6.53;1.70;;;;;;;0.53;100.00;96650.72;5027755;28;20491;-79
2022/02/06 00:23:59;;;;;;;7.50;1.40;;;;;;;0.54;100.00;96642.06;5041777;28;20037;-80
2022/02/06 00:29:15;;;;;;;8.37;1.87;;;;;;;0.62;100.00;96634.66;5023702;28;20518;-82
2022/02/06 00:31:55;;;;;;;4.93;1.50;;;;;;;0.66;100.00;96633.56;5025312;28;20029;-80
2022/02/06 00:39:47;;;;;;;6.07;2.00;;;;;;;0.76;100.00;96633.03;5022498;28;20428;-81
2022/02/06 00:42:13;;;;;;;8.37;1.83;;;;;;;0.82;100.00;96633.50;5010483;28;20468;-80
2022/02/06 00:44:39;;;;;;;4.53;1.33;;;;;;;0.82;100.00;96619.75;5042198;28;20041;-79
2022/02/06 00:47:05;;;;;;;5.93;1.47;;;;;;;0.77;100.00;96617.44;5018130;28;20112;-81
2022/02/06 00:49:32;;;;;;;4.33;1.37;;;;;;;0.81;100.00;96615.50;5019444;28;20873;-81
2022/02/06 00:52:07;;;;;;;5.63;1.37;;;;;;;0.78;100.00;96613.09;5046198;28;20447;-80
2022/02/06 00:54:38;;;;;;;8.67;3.03;;;;;;;0.83;100.00;96616.22;5040807;28;20585;-79
2022/02/06 00:57:05;;;;;;;6.77;1.50;;;;;;;0.80;100.00;96611.22;5036700;28;20571;-80
2022/02/06 00:59:30;;;;;;;10.93;1.87;;;;;;;0.77;100.00;96604.50;5013506;28;20464;-81
2022/02/06 01:01:56;;;;;;;5.50;1.83;;;;;;;0.74;100.00;96604.66;5032706;28;20517;-81
2022/02/06 01:04:22;;;;;;;7.37;1.80;;;;;;;0.74;100.00;96598.63;5028933;28;20025;-81
2022/02/06 01:06:48;;;;;;;5.40;1.63;;;;;;;0.73;100.00;96607.31;5029857;28;20055;-80
2022/02/06 01:09:15;;;;;;;4.43;1.43;;;;;;;0.75;100.00;96606.31;5026582;28;20045;-78
2022/02/06 01:11:41;;;;;;;7.17;1.50;;;;;;;0.72;100.00;96601.31;5015579;28;20100;-83
2022/02/06 01:14:19;;;;;;;7.17;1.40;;;;;;;0.73;100.00;96595.22;5014995;28;20456;-80
2022/02/06 01:16:59;;;;;;;6.33;1.40;;;;;;;0.69;100.00;96597.16;5028784;28;20034;-82
2022/02/06 01:19:34;;;;;;;9.17;1.47;;;;;;;0.70;100.00;96590.22;5022667;28;20448;-80
2022/02/06 01:22:05;;;;;;;6.70;1.40;;;;;;;0.74;100.00;96593.44;5024919;28;20468;-80
2022/02/06 01:24:43;;;;;;;5.50;1.20;;;;;;;0.70;100.00;96579.88;5013779;28;20471;-83
2022/02/06 01:27:14;;;;;;;6.03;1.27;;;;;;;0.72;100.00;96590.13;5011358;28;20490;-80
2022/02/06 01:32:16;;;;;;;6.30;1.77;;;;;;;0.66;100.00;96586.16;5033506;28;20440;-80
2022/02/06 01:35:10;;;;;;;7.20;0.97;;;;;;;0.75;100.00;96580.44;5017553;28;20479;-80
2022/02/06 01:37:44;;;;;;;9.83;1.80;;;;;;;0.72;100.00;96580.63;5034327;28;21027;-80
2022/02/06 01:43:16;;;;;;;7.23;1.50;;;;;;;0.65;100.00;96576.72;5030668;28;20460;-81
2022/02/06 02:12:46;;;;;;;5.93;1.30;;;;;;;0.64;100.00;96556.94;5033194;28;20460;-80
2022/02/06 02:31:50;;;;;;;7.90;1.63;;;;;;;0.67;100.00;96515.34;5036649;28;20484;-80
2022/02/06 02:47:15;;;;;;;3.70;0.90;;;;;;;0.84;100.00;96480.66;5036072;28;20443;-80
2022/02/06 02:49:47;;;;;;;4.17;0.90;;;;;;;0.81;100.00;96479.13;5031354;28;20472;-80
2022/02/06 02:52:22;;;;;;;4.10;1.20;;;;;;;0.86;100.00;96481.41;5060014;28;20523;-80
2022/02/06 02:54:52;;;;;;;5.23;1.37;;;;;;;0.86;100.00;96473.66;5029833;28;21025;-82
2022/02/06 02:57:27;;;;;;;6.63;1.33;;;;;;;0.88;100.00;96466.63;5031439;28;20436;-80
2022/02/06 03:02:21;;;;;;;6.50;0.97;;;;;;;0.97;100.00;96450.50;5038869;28;20461;-79
2022/02/06 03:04:52;;;;;;;3.97;1.00;;;;;;;0.99;100.00;96448.66;5017859;28;21262;-80
2022/02/06 03:07:24;;;;;;;9.60;1.37;;;;;;;1.00;100.00;96445.13;5034750;28;20045;-81
2022/02/06 03:09:50;;;;;;;7.77;1.20;;;;;;;1.00;100.00;96439.97;5025508;28;20474;-79
2022/02/06 03:12:21;;;;;;;5.63;1.07;;;;;;;1.08;100.00;96426.56;5047641;28;20833;-80
2022/02/06 03:15:11;;;;;;;3.37;0.73;;;;;;;1.15;100.00;96414.88;5012721;28;20029;-81
2022/02/06 03:17:44;;;;;;;5.10;1.23;;;;;;;1.21;100.00;96414.50;5018456;28;20551;-79
2022/02/06 03:20:17;;;;;;;;;;;;;;;1.14;100.00;96416.63;5032013;28;20495;-81
2022/02/06 03:22:54;;;;;;;6.23;1.30;;;;;;;1.24;100.00;96403.06;5054504;28;20293;-80
2022/02/06 03:25:22;;;;;;;5.10;1.20;;;;;;;1.28;100.00;96404.56;5028334;28;20479;-80
2022/02/06 03:27:49;;;;;;;6.33;0.97;;;;;;;1.27;100.00;96405.47;5042558;28;20510;-80
2022/02/06 03:30:15;;;;;;;6.43;1.10;;;;;;;1.31;100.00;96399.19;5026696;28;20830;-82
2022/02/06 03:32:41;;;;;;;7.43;1.23;;;;;;;1.36;100.00;96399.72;5032314;28;20931;-80
2022/02/06 03:35:07;;;;;;;8.13;1.10;;;;;;;1.34;100.00;96392.06;5026595;28;20455;-80
2022/02/06 03:37:33;;;;;;;3.67;1.40;;;;;;;1.37;100.00;96372.88;5026820;28;20116;-80
2022/02/06 03:40:05;;;;;;;5.23;1.20;;;;;;;1.36;100.00;96378.97;5018591;28;21047;-80
2022/02/06 03:42:44;;;;;;;7.67;1.00;;;;;;;1.36;100.00;96373.81;5036801;28;20107;-80
2022/02/06 03:45:17;;;;;;;5.80;1.00;;;;;;;1.44;100.00;96378.47;5024043;28;20470;-80
2022/02/06 03:47:51;;;;;;;3.55;0.80;;;;;;;1.37;100.00;96365.91;5072500;28;20464;-80
2022/02/06 03:50:18;;;;;;;3.67;0.90;;;;;;;1.47;100.00;96375.69;5017587;28;20469;-81
2022/02/06 03:52:50;;;;;;;6.13;1.20;;;;;;;1.49;100.00;96369.47;5037321;28;20470;-79
2022/02/06 03:55:19;;;;;;;5.47;1.07;;;;;;;1.59;100.00;96362.75;5029990;28;20472;-80
2022/02/06 03:57:47;;;;;;;3.93;1.03;;;;;;;1.54;100.00;96370.03;5024582;28;20559;-80
2022/02/06 04:00:14;;;;;;;4.03;0.93;;;;;;;1.53;100.00;96370.13;5040204;28;20460;-80
2022/02/06 04:02:40;;;;;;;8.27;1.50;;;;;;;1.52;100.00;96365.88;5044541;28;20484;-81
2022/02/06 04:05:07;;;;;;;12.40;1.73;;;;;;;1.54;100.00;96367.44;5022669;28;20494;-80
2022/02/06 04:07:33;;;;;;;4.63;0.73;;;;;;;1.56;100.00;96364.72;5023448;28;20045;-80
2022/02/06 04:09:59;;;;;;;6.50;0.87;;;;;;;1.59;100.00;96367.94;5044064;28;20455;-80
2022/02/06 04:12:26;;;;;;;5.20;1.00;;;;;;;1.66;100.00;96365.78;5053570;28;20029;-80
2022/02/06 04:17:23;;;;;;;2.67;0.70;;;;;;;1.58;100.00;96355.94;5039833;28;20507;-82
2022/02/06 04:19:51;;;;;;;7.33;1.87;;;;;;;1.63;100.00;96351.25;5022445;28;20063;-79
2022/02/06 04:22:18;;;;;;;5.90;1.00;;;;;;;1.63;100.00;96351.25;5036387;28;20494;-79
2022/02/06 04:24:44;;;;;;;7.70;1.10;;;;;;;1.69;100.00;96349.22;5028280;28;20460;-82
2022/02/06 04:27:11;;;;;;;4.67;0.90;;;;;;;1.74;98.71;96345.34;5019696;28;20468;-82
2022/02/06 04:29:36;;;;;;;3.70;0.80;;;;;;;1.74;99.06;96341.94;5020965;28;20453;-80
2022/02/06 04:32:04;;;;;;;4.77;1.20;;;;;;;1.72;99.67;96339.47;5029066;28;21447;-81
2022/02/06 04:34:30;;;;;;;5.83;1.10;;;;;;;1.77;98.93;96333.94;5037555;28;20109;-81
2022/02/06 04:40:08;;;;;;;4.13;1.30;;;;;;;1.73;99.35;96327.31;5042202;28;21124;-80
2022/02/06 04:42:46;;;;;;;5.83;0.97;;;;;;;1.83;98.87;96325.78;5026854;28;21296;-80
2022/02/06 04:48:39;;;;;;;3.80;0.80;;;;;;;1.85;98.92;96334.28;5036915;28;20435;-81
2022/02/06 05:16:19;;;;;;;4.57;0.90;;;;;;;1.82;98.93;96311.16;5032073;28;20523;-80
2022/02/06 05:34:17;;;;;;;4.53;0.90;;;;;;;1.85;98.14;96297.97;5054842;28;20543;-80
2022/02/06 05:36:42;;;;;;;5.97;1.40;;;;;;;1.87;98.07;96293.50;5049332;28;20597;-80
2022/02/06 05:39:08;;;;;;;2.83;0.70;;;;;;;1.83;98.43;96292.06;5015715;28;20088;-81
2022/02/06 05:41:34;;;;;;;9.07;1.00;;;;;;;1.84;97.86;96288.53;5046775;28;20034;-78
2022/02/06 05:43:59;;;;;;;4.33;0.97;;;;;;;1.84;97.69;96302.31;5026328;28;20029;-80
2022/02/06 05:46:25;;;;;;;7.03;0.87;;;;;;;1.93;97.46;96306.06;5033283;28;20057;-81
2022/02/06 05:48:51;;;;;;;2.97;0.80;;;;;;;1.91;97.12;96302.72;5045403;28;20111;-80
2022/02/06 05:51:17;;;;;;;2.87;0.83;;;;;;;1.93;96.62;96303.47;5021314;28;20029;-80
2022/02/06 05:53:43;;;;;;;6.10;1.03;;;;;;;1.92;97.21;96311.38;5040482;28;20064;-81
2022/02/06 05:56:09;;;;;;;3.63;1.03;;;;;;;1.89;97.27;96299.44;5034279;28;21019;-81
2022/02/06 05:58:34;;;;;;;4.90;1.03;;;;;;;1.95;96.38;96288.63;5039970;28;20033;-80
2022/02/06 06:01:00;;;;;;;3.33;0.80;;;;;;;1.98;96.24;96303.13;5036734;28;20029;-81
2022/02/06 06:03:26;;;;;;;5.90;0.97;;;;;;;1.93;96.19;96284.50;5048428;28;20037;-81
2022/02/06 06:05:51;;;;;;;4.93;0.93;;;;;;;1.96;96.46;96285.09;5026563;28;20021;-81
2022/02/06 06:08:17;;;;;;;5.33;1.10;;;;;;;1.90;96.99;96288.13;5042179;28;20037;-80
2022/02/06 06:10:43;;;;;;;3.77;1.27;;;;;;;1.97;95.55;96286.75;5029860;28;20040;-80
2022/02/06 06:13:09;;;;;;;5.93;1.00;;;;;;;2.00;95.76;96280.53;5028502;28;20106;-81
2022/02/06 06:15:36;;;;;;;3.83;0.87;;;;;;;2.00;95.87;96276.16;5022943;28;20046;-82
2022/02/06 06:18:04;;;;;;;5.10;0.80;;;;;;;2.02;96.00;96279.50;5072087;28;20036;-80
2022/02/06 06:20:33;;;;;;;6.13;1.23;;;;;;;2.02;95.68;96273.50;5033279;28;20033;-81
2022/02/06 06:22:58;;;;;;;5.83;2.37;;;;;;;2.05;95.62;96262.91;5024704;28;20506;-80
2022/02/06 06:25:27;;;;;;;6.00;1.10;;;;;;;2.01;95.62;96246.72;5040797;28;20546;-81
2022/02/06 06:27:55;;;;;;;2.83;1.10;;;;;;;2.00;95.16;96247.66;5033201;28;20032;-80
2022/02/06 06:30:21;;;;;;;6.77;2.00;;;;;;;2.00;95.88;96242.47;5024448;28;20464;-80
2022/02/06 06:32:47;;;;;;;8.53;1.27;;;;;;;1.97;96.34;96265.19;5028615;28;20487;-80
2022/02/06 06:35:13;;;;;;;3.53;0.90;;;;;;;2.02;95.55;96244.97;5024206;28;20086;-80
2022/02/06 06:37:41;;;;;;;7.57;2.53;;;;;;;2.04;95.88;96251.69;5035136;28;20068;-81
2022/02/06 06:40:07;;;;;;;7.70;2.60;;;;;;;2.00;95.97;96249.41;5057087;28;20033;-79
2022/02/06 06:42:33;;;;;;;3.60;0.67;;;;;;;2.02;95.38;96245.78;5028366;28;20473;-80
2022/02/06 06:45:06;;;;;;;6.13;1.13;;;;;;;2.01;95.87;96241.53;5010504;28;20487;-79
2022/02/06 06:47:31;;;;;;;4.60;0.80;;;;;;;2.12;94.54;96253.75;5047777;28;20029;-80
2022/02/06 06:49:58;;;;;;;7.70;0.90;;;;;;;2.19;94.06;96254.16;5021911;28;20103;-80
2022/02/06 06:52:25;;;;;;;4.27;1.37;;;;;;;2.18;94.14;96258.53;5046974;28;20064;-80
2022/02/06 06:54:59;;;;;;;8.00;1.00;;;;;;;2.23;94.37;96265.97;5057044;28;20515;-80
2022/02/06 06:57:35;;;;;;;4.03;1.00;;;;;;;2.25;94.03;96256.34;5047110;28;20455;-79
2022/02/06 07:02:32;;;;;;;1.93;0.80;;;;;;;2.28;93.36;96235.34;5051828;28;20064;-80
2022/02/06 07:05:03;;;;;;;5.73;1.40;;;;;;;2.31;93.61;96217.81;5041302;28;20514;-80
2022/02/06 07:07:32;;;;;;;7.10;1.10;;;;;;;2.29;94.13;96193.72;5022975;28;20142;-80
2022/02/06 07:10:00;;;;;;;5.10;1.13;;;;;;;2.30;94.08;96191.94;5019635;28;20465;-80
2022/02/06 07:12:26;;;;;;;3.80;0.90;;;;;;;2.30;93.55;96204.94;5023824;28;20042;-80
2022/02/06 07:14:59;;;;;;;3.70;0.90;;;;;;;2.31;93.85;96206.56;5020836;28;20566;-80
2022/02/06 07:17:26;;;;;;;2.93;0.93;;;;;;;2.31;93.83;96202.25;5043274;28;20040;-80
2022/02/06 07:19:58;;;;;;;6.90;1.77;;;;;;;2.30;94.19;96210.13;5052220;28;20482;-80
2022/02/06 07:22:24;;;;;;;8.70;2.30;;;;;;;2.33;93.11;96218.50;5035452;28;20059;-79
2022/02/06 07:24:52;;;;;;;5.17;1.30;;;;;;;2.34;93.95;96219.31;5065148;28;20030;-80
2022/02/06 07:29:50;;;;;;;5.80;1.30;;;;;;;2.38;93.37;96201.78;5039025;28;20530;-80
2022/02/06 07:32:22;;;;;;;7.35;1.70;;;;;;;2.36;92.83;96194.13;5037426;28;20072;-80
2022/02/06 07:34:48;;;;;;;5.00;1.00;;;;;;;2.38;93.41;96194.81;5017109;28;20102;-80
2022/02/06 07:37:13;;;;;;;6.07;1.47;;;;;;;2.37;93.49;96190.56;5021003;28;20997;-82
2022/02/06 07:39:44;;;;;;;5.13;1.10;;;;;;;2.38;94.12;96191.41;5035837;28;20040;-80
2022/02/06 07:42:11;;;;;;;15.40;8.97;;;;;;;2.41;93.69;96173.84;5030334;28;20030;-80
2022/02/06 07:44:47;;;;;;;21.70;11.23;;;;;;;2.44;93.65;96185.75;5032694;28;20821;-80
2022/02/06 07:47:22;;;;;;;14.83;7.90;;;;;;;2.46;93.92;96170.94;5015322;28;20030;-80
2022/02/06 07:49:50;;;;;;;8.07;2.10;;;;;;;2.53;93.00;96165.16;5039850;28;21197;-79
2022/02/06 07:52:24;;;;;;;6.77;1.17;;;;;;;2.57;93.03;96164.00;5022616;28;20467;-80
2022/02/06 07:54:51;;;;;;;8.17;3.17;;;;;;;2.57;93.75;96155.38;5013413;28;20487;-81
2022/02/06 07:57:17;;;;;;;6.13;1.80;;;;;;;2.62;93.63;96170.66;4999720;28;20487;-79
2022/02/06 07:59:44;;;;;;;6.73;1.50;;;;;;;2.68;93.11;96131.22;5016324;28;20049;-79
2022/02/06 08:02:13;;;;;;;8.37;1.97;;;;;;;2.81;92.64;96131.97;5013235;28;20057;-80
2022/02/06 08:04:39;;;;;;;3.73;1.00;;;;;;;2.82;91.73;96125.88;5062734;28;20133;-80
2022/02/06 08:07:07;;;;;;;5.07;1.50;;;;;;;2.84;92.45;96123.97;5069622;28;20029;-81
2022/02/06 08:12:14;;;;;;;8.73;1.87;;;;;;;3.05;93.01;96122.38;5028674;28;20029;-81
2022/02/06 08:14:56;;;;;;;6.03;1.23;;;;;;;2.99;92.37;96125.44;5018258;28;20115;-80
2022/02/06 08:17:28;;;;;;;5.17;1.10;;;;;;;3.09;91.64;96119.53;5020113;28;20493;-80
2022/02/06 08:19:59;;;;;;;7.83;1.30;;;;;;;3.06;91.53;96105.00;5029090;28;20445;-80
2022/02/06 08:22:25;;;;;;;5.50;1.10;;;;;;;3.13;90.02;96120.97;5046578;28;20638;-79
2022/02/06 08:24:54;;;;;;;7.20;1.90;;;;;;;3.20;90.99;96122.13;5053362;28;20124;-81
2022/02/06 08:27:21;;;;;;;9.73;1.47;;;;;;;3.27;89.29;96107.72;5036288;28;20034;-80
2022/02/06 08:29:48;;;;;;;1.77;0.90;;;;;;;3.31;88.92;96109.16;5014112;28;20500;-80
2022/02/06 08:32:16;;;;;;;7.43;1.37;;;;;;;3.34;89.60;96095.91;5038012;28;20017;-77
2022/02/06 08:34:42;;;;;;;4.93;1.50;;;;;;;3.39;88.57;96090.38;5036829;28;20037;-80
2022/02/06 08:37:09;;;;;;;4.30;0.80;;;;;;;3.38;89.74;96094.72;5028851;28;20242;-80
2022/02/06 08:39:37;;;;;;;9.67;1.30;;;;;;;3.40;89.95;96098.06;5034926;28;20044;-80
2022/02/06 08:42:06;;;;;;;6.77;1.70;;;;;;;3.45;88.70;96090.72;5036303;28;20040;-79
2022/02/06 08:44:32;;;;;;;8.77;2.30;;;;;;;3.46;88.68;96081.97;5054509;28;20028;-79
2022/02/06 08:46:59;;;;;;;8.07;1.43;;;;;;;3.51;88.18;96100.63;5035191;28;20033;-79
2022/02/06 08:49:25;;;;;;;5.53;1.60;;;;;;;3.48;89.13;96097.44;5032742;28;20028;-79
2022/02/06 08:51:52;;;;;;;6.37;1.20;;;;;;;3.55;88.63;96101.22;5022822;28;20029;-78
2022/02/06 08:54:24;;;;;;;5.17;1.40;;;;;;;3.59;88.01;96086.22;5025810;28;20431;-79
2022/02/06 08:56:51;;;;;;;5.07;1.10;;;;;;;3.60;86.69;96082.69;5026750;28;20120;-80
2022/02/06 08:59:16;;;;;;;4.73;1.00;;;;;;;3.60;87.74;96077.47;5013387;28;20035;-80
2022/02/06 09:01:45;;;;;;;4.63;1.10;;;;;;;3.60;88.10;96082.69;5036081;28;20691;-77
2022/02/06 09:04:11;;;;;;;4.87;1.10;;;;;;;3.63;87.62;96072.88;5038551;28;20064;-79
2022/02/06 09:06:37;;;;;;;3.17;0.90;;;;;;;3.66;87.49;96077.00;5023263;28;20033;-79
2022/02/06 09:09:11;;;;;;;5.77;1.00;;;;;;;3.66;88.31;96079.59;5021683;28;20057;-79
2022/02/06 09:11:37;;;;;;;3.70;0.80;;;;;;;3.68;88.26;96075.09;5039709;28;20036;-78
2022/02/06 09:14:02;;;;;;;7.97;1.10;;;;;;;3.68;89.22;96073.31;5039127;28;20037;-78
2022/02/06 09:16:28;;;;;;;4.40;0.90;;;;;;;3.74;88.57;96061.59;5037111;28;20032;-78
2022/02/06 09:18:54;;;;;;;5.60;1.47;;;;;;;3.76;88.66;96057.13;5033548;28;20057;-78
2022/02/06 09:21:23;;;;;;;7.40;1.40;;;;;;;3.82;88.51;96059.22;5017716;28;20239;-78
2022/02/06 09:23:50;;;;;;;6.57;1.17;;;;;;;3.90;87.56;96049.03;5032191;28;20038;-77
2022/02/06 09:26:17;;;;;;;5.93;1.17;;;;;;;3.86;87.29;96052.03;5035058;28;20033;-77
2022/02/06 09:28:44;;;;;;;4.47;1.13;;;;;;;3.93;86.94;96055.78;5021298;28;20036;-78
2022/02/06 09:31:10;;;;;;;4.30;1.00;;;;;;;3.99;87.78;96050.91;5029939;28;20017;-79
2022/02/06 09:38:31;;;;;;;9.07;2.57;;;;;;;4.03;87.54;96038.47;5050370;28;20095;-79
2022/02/06 09:41:01;;;;;;;17.57;5.77;;;;;;;4.00;87.79;96025.72;5017674;28;20034;-77
2022/02/06 09:43:29;;;;;;;45.23;19.70;;;;;;;4.04;87.95;96023.69;5039094;28;20031;-79
2022/02/06 09:45:56;;;;;;;50.33;19.60;;;;;;;4.07;88.67;96021.66;5041193;28;20032;-79
2022/02/06 09:48:22;;;;;;;6.20;2.90;;;;;;;4.11;87.09;96027.44;5015472;28;20033;-81
2022/02/06 09:50:48;;;;;;;10.40;3.50;;;;;;;4.18;88.12;96012.97;5036583;28;20080;-79
2022/02/06 09:53:21;;;;;;;3.70;1.50;;;;;;;4.14;87.02;96017.59;5061528;28;20559;-78
2022/02/06 09:55:48;;;;;;;8.68;3.03;;;;;;;4.17;87.86;96006.13;5023506;28;20052;-80
2022/02/06 09:58:44;;;;;;;27.93;12.80;;;;;;;4.22;88.32;96003.97;5030488;28;20123;-79
2022/02/06 10:01:14;;;;;;;25.07;9.17;;;;;;;4.26;87.04;96005.38;5031675;28;20033;-78
2022/02/06 10:03:46;;;;;;;16.90;7.43;;;;;;;4.29;86.84;95981.69;5034096;28;20059;-79
2022/02/06 10:06:30;;;;;;;5.67;1.23;;;;;;;4.31;86.68;95994.59;5017216;28;20034;-80
2022/02/06 10:09:09;;;;;;;2.90;0.80;;;;;;;4.37;85.85;95976.69;5039137;28;20133;-79
2022/02/06 10:11:44;;;;;;;7.17;1.30;;;;;;;4.38;86.60;95991.34;5045649;28;20029;-82
2022/02/06 10:14:14;;;;;;;10.50;2.70;;;;;;;4.35;86.88;95973.38;5040347;28;20416;-80
2022/02/06 10:16:42;;;;;;;3.33;0.93;;;;;;;4.36;88.15;95963.78;5041613;28;20049;-80
2022/02/06 10:19:08;;;;;;;4.50;1.50;;;;;;;4.31;87.62;95965.94;5039705;28;20040;-79
2022/02/06 10:21:35;;;;;;;6.27;1.47;;;;;;;4.36;85.74;95946.41;5042804;28;20041;-81
2022/02/06 10:24:17;;;;;;;7.33;2.00;;;;;;;4.43;85.45;95936.31;5046978;28;20447;-81
2022/02/06 10:31:55;;;;;;;9.40;4.60;;;;;;;4.50;85.18;95914.00;5044400;28;20033;-80
2022/02/06 10:34:29;;;;;;;11.67;3.60;;;;;;;4.55;84.89;95888.38;5049110;28;20061;-81
2022/02/06 10:37:15;;;;;;;7.90;1.60;;;;;;;4.57;85.08;95898.69;5045923;28;20029;-81
2022/02/06 10:40:00;;;;;;;6.93;1.93;;;;;;;4.54;84.62;95886.72;5029275;28;20040;-80
2022/02/06 10:42:32;;;;;;;7.87;1.70;;;;;;;4.56;85.04;95870.97;5055435;28;20037;-80
2022/02/06 10:45:19;;;;;;;7.23;1.67;;;;;;;4.57;84.81;95859.63;5041276;28;20025;-80
2022/02/06 10:47:46;;;;;;;3.97;1.40;;;;;;;4.62;84.70;95853.03;5046081;28;20033;-79
2022/02/06 10:50:18;;;;;;;7.53;1.53;;;;;;;4.63;84.59;95866.91;5027575;28;20060;-81
2022/02/06 10:52:44;;;;;;;7.70;2.90;;;;;;;4.67;84.59;95845.66;5058931;28;20041;-80
2022/02/06 10:55:10;;;;;;;6.17;1.10;;;;;;;4.68;85.43;95831.69;5022598;28;20033;-79
2022/02/06 10:57:37;;;;;;;6.80;1.03;;;;;;;4.73;84.62;95826.09;5020847;28;20041;-80
2022/02/06 11:00:06;;;;;;;4.50;1.00;;;;;;;4.78;82.43;95838.69;5022972;28;20029;-80
2022/02/06 11:02:57;;;;;;;3.53;0.80;;;;;;;4.78;83.55;95831.69;5026844;28;20037;-78
2022/02/06 11:05:32;;;;;;;5.83;1.27;;;;;;;4.80;82.88;95837.63;5021398;28;20517;-81
2022/02/06 11:08:01;;;;;;;5.80;1.30;;;;;;;4.88;82.76;95824.72;5037034;28;20033;-80
2022/02/06 11:10:30;;;;;;;2.33;0.53;;;;;;;4.93;81.90;95827.78;5046803;28;20024;-80
2022/02/06 11:13:04;;;;;;;8.63;1.20;;;;;;;4.89;82.40;95815.94;5020890;28;20029;-80
2022/02/06 11:15:38;;;;;;;5.70;2.10;;;;;;;4.85;82.99;95811.16;5018432;28;20029;-81
2022/02/06 11:18:05;;;;;;;5.87;1.80;;;;;;;4.88;82.10;95801.28;5013046;28;20048;-80
2022/02/06 11:20:32;;;;;;;4.67;1.03;;;;;;;4.94;82.75;95805.16;5040969;28;20041;-81
2022/02/06 11:23:02;;;;;;;8.27;0.90;;;;;;;4.91;82.51;95795.00;5029495;28;20048;-78
2022/02/06 11:25:30;;;;;;;5.87;1.40;;;;;;;4.93;82.72;95798.28;5016405;28;20033;-80
2022/02/06 11:27:57;;;;;;;2.70;0.87;;;;;;;4.99;82.75;95784.69;5014903;28;20486;-80
2022/02/06 11:30:22;;;;;;;7.90;1.07;;;;;;;4.90;83.41;95785.53;5040019;28;20087;-80
2022/02/06 11:32:48;;;;;;;4.60;1.20;;;;;;;4.94;82.42;95777.28;5035150;28;20025;-80
2022/02/06 11:35:19;;;;;;;5.53;1.20;;;;;;;4.93;82.36;95762.63;5034989;28;20022;-79
2022/02/06 11:44:01;;;;;;;7.10;1.17;;;;;;;4.93;83.47;95754.00;5037057;28;20048;-79
2022/02/06 11:46:48;;;;;;;5.97;0.97;;;;;;;4.97;82.95;95737.94;5014261;28;20087;-80
2022/02/06 11:49:17;;;;;;;5.07;0.83;;;;;;;4.96;83.08;95728.50;5037510;28;20033;-80
2022/02/06 11:51:59;;;;;;;2.07;0.83;;;;;;;4.94;82.68;95730.41;5017911;28;20120;-82
2022/02/06 11:54:25;;;;;;;0.93;0.50;;;;;;;4.99;83.26;95723.94;5012347;28;20483;-80
2022/02/06 11:57:17;;;;;;;6.13;1.43;;;;;;;5.03;83.12;95712.28;5034680;28;20033;-80
2022/02/06 12:00:02;;;;;;;2.50;0.70;;;;;;;5.04;84.14;95716.56;5038558;28;20087;-80
2022/02/06 12:02:41;;;;;;;;;;;;;;;5.08;83.45;95707.50;5044350;28;20049;-80
2022/02/06 12:05:27;;;;;;;7.20;1.53;;;;;;;5.07;83.77;95701.47;5037187;28;19976;-81
2022/02/06 12:07:53;;;;;;;2.77;0.70;;;;;;;5.12;84.57;95686.22;5031390;28;20144;-80
2022/02/06 12:10:21;;;;;;;3.47;0.70;;;;;;;5.10;83.66;95674.31;5044521;28;20073;-82
2022/02/06 12:12:50;;;;;;;5.03;1.17;;;;;;;5.07;84.41;95669.38;5033950;28;20029;-81
2022/02/06 12:15:30;;;;;;;3.43;0.83;;;;;;;5.08;84.70;95660.56;5020812;28;20035;-81
2022/02/06 12:18:06;;;;;;;1.93;0.70;;;;;;;5.14;83.34;95645.22;5037455;28;20076;-80
2022/02/06 12:20:55;;;;;;;1.93;0.60;;;;;;;5.10;84.74;95640.44;5043346;28;20063;-81
2022/02/06 12:23:55;;;;;;;2.00;0.77;;;;;;;5.19;84.11;95642.16;5026634;28;20030;-79
2022/02/06 12:26:32;;;;;;;3.13;0.70;;;;;;;5.23;83.55;95645.31;5033925;28;20517;-80
2022/02/06 12:29:11;;;;;;;3.97;1.03;;;;;;;5.24;83.58;95633.94;5037917;28;20036;-78
2022/02/06 12:31:57;;;;;;;3.03;0.73;;;;;;;5.22;83.64;95615.00;5031413;28;20026;-76
2022/02/06 12:37:36;;;;;;;2.80;0.80;;;;;;;5.24;85.64;95600.06;5036933;28;20110;-77
2022/02/06 12:40:16;;;;;;;4.50;0.93;;;;;;;5.26;85.51;95595.50;5014408;28;20033;-77
2022/02/06 12:42:45;;;;;;;5.63;0.90;;;;;;;5.24;84.96;95590.44;5006339;28;20441;-77
2022/02/06 12:45:15;;;;;;;6.03;0.83;;;;;;;5.25;84.81;95578.22;5031202;28;20037;-77
2022/02/06 12:47:44;;;;;;;4.17;1.20;;;;;;;5.33;85.91;95566.13;5035071;28;20064;-77
2022/02/06 12:50:37;;;;;;;2.03;0.60;;;;;;;5.26;84.67;95557.22;5065288;28;20025;-82
2022/02/06 12:53:05;;;;;;;4.97;0.60;;;;;;;5.29;84.99;95569.97;5032864;28;20243;-78
2022/02/06 12:55:37;;;;;;;4.63;1.00;;;;;;;5.27;85.37;95573.69;5041353;28;20306;-77
2022/02/06 12:58:06;;;;;;;5.47;1.33;;;;;;;5.27;85.25;95548.44;5029736;28;20044;-79
2022/02/06 13:00:38;;;;;;;1.97;0.70;;;;;;;5.29;84.34;95549.09;5039409;28;20038;-80
2022/02/06 13:03:22;;;;;;;3.57;0.90;;;;;;;5.29;85.04;95546.50;5010339;28;20029;-79
2022/02/06 13:05:51;;;;;;;3.33;1.00;;;;;;;5.31;85.22;95548.97;5047726;28;20037;-79
2022/02/06 13:08:17;;;;;;;3.70;0.93;;;;;;;5.33;84.92;95534.84;5036980;28;20068;-80
2022/02/06 13:11:10;;;;;;;3.37;1.10;;;;;;;5.35;84.78;95532.91;5022268;28;20045;-79
2022/02/06 13:16:22;;;;;;;2.57;0.80;;;;;;;5.36;83.33;95505.03;5035957;28;20037;-78
2022/02/06 13:19:05;;;;;;;5.60;0.90;;;;;;;5.40;83.55;95507.22;5040440;28;20076;-79
2022/02/06 13:26:48;;;;;;;1.60;0.60;;;;;;;5.36;84.73;95503.25;5042698;28;20034;-78
2022/02/06 13:29:34;;;;;;;2.37;0.67;;;;;;;5.36;83.80;95490.22;5022676;28;20033;-79
2022/02/06 13:34:46;;;;;;;6.83;0.53;;;;;;;5.38;83.05;95472.66;5029887;28;20044;-78
2022/02/06 13:37:25;;;;;;;5.88;1.00;;;;;;;5.42;83.46;95474.00;5037569;28;20034;-78
2022/02/06 13:39:55;;;;;;;0.93;0.40;;;;;;;5.43;82.95;95474.81;5019526;28;20568;-80
2022/02/06 13:42:30;;;;;;;3.10;1.20;;;;;;;5.39;84.51;95461.25;5022219;28;20554;-78
2022/02/06 13:45:13;;;;;;;5.97;1.50;;;;;;;5.36;85.48;95456.31;5043177;28;20122;-78
2022/02/06 13:47:40;;;;;;;4.77;0.83;;;;;;;5.34;87.68;95452.25;5018412;28;20454;-80
2022/02/06 13:50:10;;;;;;;2.80;1.00;;;;;;;5.26;89.52;95445.13;5040791;28;20032;-80
2022/02/06 13:52:46;;;;;;;5.13;0.90;;;;;;;5.17;92.27;95446.84;5043918;28;20108;-79
2022/02/06 13:55:13;;;;;;;2.50;0.50;;;;;;;5.17;91.13;95423.38;5036902;28;20048;-78
2022/02/06 13:57:41;;;;;;;1.87;1.17;;;;;;;5.15;91.29;95407.06;5023466;28;20059;-79
2022/02/06 14:00:10;;;;;;;1.97;0.83;;;;;;;5.15;92.25;95401.03;5036123;28;20116;-79
2022/02/06 14:02:59;;;;;;;1.67;0.60;;;;;;;5.12;92.34;95396.09;5043089;28;20042;-78
2022/02/06 14:05:26;;;;;;;2.73;0.93;;;;;;;5.08;94.88;95394.75;5028585;28;20048;-78
2022/02/06 14:08:07;;;;;;;1.20;0.43;;;;;;;5.06;95.11;95391.47;5048867;28;20248;-80
2022/02/06 14:10:59;;;;;;;3.13;0.70;;;;;;;5.07;94.84;95382.72;5033867;28;20097;-77
2022/02/06 14:13:25;;;;;;;2.57;0.80;;;;;;;5.01;96.27;95378.88;5016388;28;20018;-77
2022/02/06 14:16:05;;;;;;;4.00;0.97;;;;;;;4.94;98.37;95373.44;5032650;28;20025;-79
2022/02/06 14:18:33;;;;;;;3.10;1.20;;;;;;;4.88;100.00;95389.66;5020149;28;20037;-78
2022/02/06 14:21:01;;;;;;;17.50;7.00;;;;;;;4.78;100.00;95386.28;5032541;28;20704;-78
2022/02/06 14:23:27;;;;;;;6.03;2.50;;;;;;;4.68;100.00;95382.88;5016094;28;20025;-78
2022/02/06 14:25:53;;;;;;;3.47;1.70;;;;;;;4.64;100.00;95391.97;5013354;28;20037;-79
2022/02/06 14:28:26;;;;;;;3.77;0.97;;;;;;;4.54;100.00;95391.19;5043672;28;20026;-77
2022/02/06 14:30:53;;;;;;;2.87;0.97;;;;;;;4.43;100.00;95385.19;5032409;28;20072;-79
2022/02/06 14:33:24;;;;;;;3.40;0.60;;;;;;;4.42;100.00;95356.69;5035371;28;20120;-79
2022/02/06 14:36:01;;;;;;;2.77;0.50;;;;;;;4.28;100.00;95359.75;5027584;28;20033;-79